Time;durP1;ratioP1;P1;durP2;ratioP2;P2;SDS_P1;SDS_P2;PMS_P1;PMS_P2;Temp;Humidity;BMP_temperature;BMP_pressure;BME280_temperature;BME280_humidity;BME280_pressure;Samples;Min_cycle;Max_cycle;Signal;HPM_P1;HPM_P2
2023/05/12 00:00:05;;;;;;;0.00;0.00;;;;;;;;;;4972959;28;20047;-83
2023/05/12 00:02:31;;;;;;;0.00;0.00;;;;;;;;;;4972988;28;20051;-83
2023/05/12 00:04:57;;;;;;;0.00;0.00;;;;;;;;;;4972678;28;20053;-83
2023/05/12 00:07:23;;;;;;;0.00;0.00;;;;;;;;;;4972650;28;20055;-84
2023/05/12 00:09:49;;;;;;;0.00;0.00;;;;;;;;;;4973913;28;20046;-83
2023/05/12 00:12:15;;;;;;;0.00;0.00;;;;;;;;;;4974311;28;20050;-84
2023/05/12 00:14:41;;;;;;;0.00;0.00;;;;;;;;;;4972540;28;20499;-83
2023/05/12 00:17:08;;;;;;;0.00;0.00;;;;;;;;;;4972544;28;20121;-83
2023/05/12 00:19:35;;;;;;;0.00;0.00;;;;;;;;;;4957061;28;20039;-83
2023/05/12 00:22:01;;;;;;;0.50;0.13;;;;;;;;;;4972727;28;20114;-83
2023/05/12 00:24:29;;;;;;;0.00;0.00;;;;;;;;;;4972415;28;20043;-83
2023/05/12 00:26:55;;;;;;;0.00;0.00;;;;;;;;;;4972559;28;20047;-83
2023/05/12 00:29:21;;;;;;;0.00;0.00;;;;;;;;;;4972706;28;20049;-83
2023/05/12 00:31:47;;;;;;;0.00;0.00;;;;;;;;;;4972165;28;20129;-83
2023/05/12 00:34:13;;;;;;;0.00;0.00;;;;;;;;;;4972904;28;20134;-83
2023/05/12 00:36:39;;;;;;;0.00;0.00;;;;;;;;;;4972114;28;20049;-82
2023/05/12 00:39:05;;;;;;;0.00;0.00;;;;;;;;;;4972988;28;20043;-83
2023/05/12 00:41:31;;;;;;;0.00;0.00;;;;;;;;;;4972530;28;20042;-83
2023/05/12 00:43:57;;;;;;;0.00;0.00;;;;;;;;;;4972442;28;20094;-83
2023/05/12 00:46:24;;;;;;;0.00;0.00;;;;;;;;;;4972211;28;20054;-83
2023/05/12 00:48:50;;;;;;;0.00;0.00;;;;;;;;;;4972772;28;20053;-83
2023/05/12 00:51:16;;;;;;;0.00;0.00;;;;;;;;;;4972096;28;20078;-83
2023/05/12 00:53:43;;;;;;;0.00;0.00;;;;;;;;;;4972666;28;20133;-83
2023/05/12 00:56:09;;;;;;;0.00;0.00;;;;;;;;;;4972094;28;20529;-83
2023/05/12 00:58:35;;;;;;;0.00;0.00;;;;;;;;;;4956208;28;20118;-83
2023/05/12 01:01:01;;;;;;;0.00;0.00;;;;;;;;;;4972168;28;20072;-83
2023/05/12 01:03:27;;;;;;;0.38;0.10;;;;;;;;;;4973246;28;20106;-83
2023/05/12 01:06:00;;;;;;;0.00;0.00;;;;;;;;;;4972138;28;20046;-83
2023/05/12 01:08:26;;;;;;;0.00;0.00;;;;;;;;;;4973684;28;20035;-83
2023/05/12 01:10:52;;;;;;;0.00;0.00;;;;;;;;;;4975284;28;20144;-83
2023/05/12 01:13:18;;;;;;;0.00;0.00;;;;;;;;;;4975829;28;20039;-84
2023/05/12 01:15:47;;;;;;;0.00;0.00;;;;;;;;;;4975646;28;20047;-83
2023/05/12 01:18:14;;;;;;;0.00;0.00;;;;;;;;;;4975816;28;20395;-84
2023/05/12 01:20:42;;;;;;;0.00;0.00;;;;;;;;;;4975445;28;20086;-83
2023/05/12 01:23:09;;;;;;;0.00;0.00;;;;;;;;;;4975850;28;20051;-83
2023/05/12 01:25:35;;;;;;;0.00;0.00;;;;;;;;;;4975279;28;20101;-84
2023/05/12 01:28:02;;;;;;;0.00;0.00;;;;;;;;;;4977009;28;20043;-83
2023/05/12 01:30:29;;;;;;;0.00;0.00;;;;;;;;;;4975083;28;20046;-83
2023/05/12 01:32:55;;;;;;;0.00;0.00;;;;;;;;;;4975395;28;20097;-82
2023/05/12 01:35:21;;;;;;;0.00;0.00;;;;;;;;;;4975067;28;20085;-83
2023/05/12 01:37:46;;;;;;;0.00;0.00;;;;;;;;;;4975214;28;20066;-82
2023/05/12 01:40:13;;;;;;;0.00;0.00;;;;;;;;;;4976544;28;20039;-83
2023/05/12 01:42:39;;;;;;;0.00;0.00;;;;;;;;;;4975240;28;20129;-82
2023/05/12 01:45:06;;;;;;;0.00;0.00;;;;;;;;;;4975394;28;20039;-83
2023/05/12 01:47:32;;;;;;;0.00;0.00;;;;;;;;;;4974918;28;20061;-82
2023/05/12 01:49:58;;;;;;;0.00;0.00;;;;;;;;;;4976253;28;20075;-83
2023/05/12 01:52:24;;;;;;;0.00;0.00;;;;;;;;;;4976285;28;20094;-83
2023/05/12 01:54:50;;;;;;;0.00;0.00;;;;;;;;;;4976410;28;20039;-83
2023/05/12 01:57:17;;;;;;;0.00;0.00;;;;;;;;;;4975998;28;20122;-83
2023/05/12 01:59:43;;;;;;;0.00;0.00;;;;;;;;;;4976194;28;20043;-83
2023/05/12 02:02:11;;;;;;;0.00;0.00;;;;;;;;;;4975276;28;20049;-82
2023/05/12 02:04:37;;;;;;;0.00;0.00;;;;;;;;;;4975932;28;20088;-83
2023/05/12 02:07:03;;;;;;;0.00;0.00;;;;;;;;;;4958545;28;20126;-83
2023/05/12 02:09:29;;;;;;;0.00;0.00;;;;;;;;;;4974602;28;20063;-82
2023/05/12 02:11:55;;;;;;;0.00;0.00;;;;;;;;;;4975811;28;20039;-83
2023/05/12 02:14:20;;;;;;;0.00;0.00;;;;;;;;;;4974777;28;20413;-82
2023/05/12 02:16:51;;;;;;;0.00;0.00;;;;;;;;;;4974407;28;20046;-83
2023/05/12 02:19:17;;;;;;;0.00;0.00;;;;;;;;;;4974541;28;20098;-83
2023/05/12 02:21:45;;;;;;;0.00;0.00;;;;;;;;;;4974509;28;20047;-82
2023/05/12 02:24:11;;;;;;;0.00;0.00;;;;;;;;;;4974536;28;20072;-83
2023/05/12 02:26:37;;;;;;;0.00;0.00;;;;;;;;;;4974271;28;20118;-83
2023/05/12 02:29:03;;;;;;;0.00;0.00;;;;;;;;;;4974656;28;20051;-82
2023/05/12 02:31:29;;;;;;;0.00;0.00;;;;;;;;;;4974170;28;20511;-83
2023/05/12 02:33:55;;;;;;;0.00;0.00;;;;;;;;;;4974574;28;20471;-83
2023/05/12 02:36:21;;;;;;;0.00;0.00;;;;;;;;;;4974445;28;20450;-83
2023/05/12 02:38:47;;;;;;;0.00;0.00;;;;;;;;;;4974314;28;20047;-83
2023/05/12 02:41:13;;;;;;;0.00;0.00;;;;;;;;;;4974309;28;20042;-82
2023/05/12 02:43:39;;;;;;;0.00;0.00;;;;;;;;;;4974106;28;20343;-82
2023/05/12 02:46:05;;;;;;;0.00;0.00;;;;;;;;;;4974069;28;20039;-83
2023/05/12 02:48:31;;;;;;;0.00;0.00;;;;;;;;;;4975274;28;20490;-83
2023/05/12 02:50:57;;;;;;;0.00;0.00;;;;;;;;;;4957468;28;20050;-84
2023/05/12 02:53:23;;;;;;;0.00;0.00;;;;;;;;;;4958051;28;20129;-84
2023/05/12 02:55:49;;;;;;;0.22;0.00;;;;;;;;;;4974118;28;20182;-83
2023/05/12 02:58:15;;;;;;;0.00;0.00;;;;;;;;;;4973868;28;20054;-83
2023/05/12 03:00:41;;;;;;;0.00;0.00;;;;;;;;;;4958210;28;20043;-83
2023/05/12 03:03:07;;;;;;;0.00;0.00;;;;;;;;;;4973407;28;20051;-83
2023/05/12 03:05:33;;;;;;;0.00;0.00;;;;;;;;;;4973843;28;20057;-83
2023/05/12 03:07:59;;;;;;;0.00;0.00;;;;;;;;;;4973752;28;20051;-83
2023/05/12 03:10:25;;;;;;;0.00;0.00;;;;;;;;;;4974857;28;20187;-83
2023/05/12 03:12:51;;;;;;;0.00;0.00;;;;;;;;;;4973496;28;20046;-83
2023/05/12 03:15:17;;;;;;;1.60;0.45;;;;;;;;;;4973556;28;20050;-83
2023/05/12 03:17:43;;;;;;;0.00;0.00;;;;;;;;;;4973439;28;20054;-83
2023/05/12 03:20:11;;;;;;;0.00;0.00;;;;;;;;;;4973553;28;20510;-83
2023/05/12 03:22:37;;;;;;;0.00;0.00;;;;;;;;;;4957093;28;20133;-83
2023/05/12 03:25:04;;;;;;;0.00;0.00;;;;;;;;;;4957209;28;20129;-83
2023/05/12 03:27:31;;;;;;;0.00;0.00;;;;;;;;;;4973235;28;20476;-83
2023/05/12 03:29:59;;;;;;;0.00;0.00;;;;;;;;;;4973164;28;20055;-83
2023/05/12 03:32:26;;;;;;;0.00;0.00;;;;;;;;;;4956420;28;20043;-83
2023/05/12 03:34:52;;;;;;;0.00;0.00;;;;;;;;;;4957164;28;20510;-83
2023/05/12 03:37:18;;;;;;;0.00;0.00;;;;;;;;;;4972963;28;20496;-83
2023/05/12 03:39:44;;;;;;;0.00;0.00;;;;;;;;;;4957120;28;20427;-83
2023/05/12 03:42:11;;;;;;;0.00;0.00;;;;;;;;;;4972960;28;20432;-82
2023/05/12 03:44:37;;;;;;;0.00;0.00;;;;;;;;;;4973061;28;20051;-83
2023/05/12 03:47:03;;;;;;;0.00;0.00;;;;;;;;;;4972929;28;20367;-83
2023/05/12 03:49:28;;;;;;;0.00;0.00;;;;;;;;;;4973033;28;20050;-83
2023/05/12 03:51:55;;;;;;;0.00;0.00;;;;;;;;;;4973073;28;20051;-83
2023/05/12 03:54:21;;;;;;;0.00;0.00;;;;;;;;;;4973053;28;20122;-83
2023/05/12 03:56:47;;;;;;;0.00;0.00;;;;;;;;;;4972660;28;20133;-83
2023/05/12 03:59:13;;;;;;;0.00;0.00;;;;;;;;;;4972826;28;20128;-83
2023/05/12 04:01:39;;;;;;;0.00;0.00;;;;;;;;;;4973028;28;20047;-83
2023/05/12 04:04:05;;;;;;;0.00;0.00;;;;;;;;;;4972444;28;20507;-83
2023/05/12 04:06:31;;;;;;;0.00;0.00;;;;;;;;;;4972958;28;20043;-83
2023/05/12 04:08:57;;;;;;;0.00;0.00;;;;;;;;;;4973036;28;20098;-87
2023/05/12 04:11:23;;;;;;;0.00;0.00;;;;;;;;;;4972773;28;20039;-83
2023/05/12 04:13:49;;;;;;;0.00;0.00;;;;;;;;;;4972651;28;20050;-83
2023/05/12 04:16:15;;;;;;;0.00;0.00;;;;;;;;;;4972829;28;20039;-82
2023/05/12 04:18:41;;;;;;;0.00;0.00;;;;;;;;;;4972867;28;20039;-83
2023/05/12 04:21:08;;;;;;;0.00;0.00;;;;;;;;;;4972813;28;20125;-83
2023/05/12 04:23:34;;;;;;;0.00;0.00;;;;;;;;;;4973742;28;20451;-83
2023/05/12 04:26:03;;;;;;;0.00;0.00;;;;;;;;;;4972652;28;20129;-83
2023/05/12 04:28:29;;;;;;;0.00;0.00;;;;;;;;;;4972592;28;20055;-83
2023/05/12 04:30:55;;;;;;;0.00;0.00;;;;;;;;;;4972769;28;20047;-83
2023/05/12 04:33:21;;;;;;;0.00;0.00;;;;;;;;;;4972319;28;20058;-82
2023/05/12 04:35:47;;;;;;;0.00;0.00;;;;;;;;;;4972644;28;20414;-83
2023/05/12 04:38:13;;;;;;;0.00;0.00;;;;;;;;;;4972452;28;20054;-83
2023/05/12 04:40:39;;;;;;;0.00;0.00;;;;;;;;;;4956355;28;20034;-83
2023/05/12 04:43:05;;;;;;;0.00;0.00;;;;;;;;;;4972250;28;20117;-82
2023/05/12 04:45:31;;;;;;;0.10;0.00;;;;;;;;;;4975638;28;20045;-82
2023/05/12 04:47:57;;;;;;;0.00;0.00;;;;;;;;;;4976208;28;20050;-82
2023/05/12 04:50:23;;;;;;;0.00;0.00;;;;;;;;;;4975988;28;20047;-83
2023/05/12 04:52:49;;;;;;;0.00;0.00;;;;;;;;;;4975876;28;20347;-83
2023/05/12 04:55:15;;;;;;;0.00;0.00;;;;;;;;;;4976134;28;20542;-83
2023/05/12 04:57:41;;;;;;;0.00;0.00;;;;;;;;;;4975795;28;20125;-83
2023/05/12 05:00:07;;;;;;;0.00;0.00;;;;;;;;;;4975868;28;20049;-83
2023/05/12 05:02:33;;;;;;;0.10;0.00;;;;;;;;;;4959495;28;20050;-82
2023/05/12 05:04:59;;;;;;;0.10;0.00;;;;;;;;;;4976003;28;20101;-83
2023/05/12 05:07:25;;;;;;;0.00;0.00;;;;;;;;;;4975808;28;20055;-82
2023/05/12 05:09:51;;;;;;;0.00;0.00;;;;;;;;;;4976032;28;20058;-82
2023/05/12 05:12:17;;;;;;;0.30;0.10;;;;;;;;;;4975773;28;20047;-83
2023/05/12 05:14:43;;;;;;;0.00;0.00;;;;;;;;;;4975496;28;20042;-82
2023/05/12 05:17:11;;;;;;;0.00;0.00;;;;;;;;;;4976765;28;20046;-82
2023/05/12 05:19:37;;;;;;;0.00;0.00;;;;;;;;;;4959070;28;20055;-82
2023/05/12 05:22:03;;;;;;;0.00;0.00;;;;;;;;;;4975478;28;20035;-83
2023/05/12 05:24:29;;;;;;;0.00;0.00;;;;;;;;;;4975084;28;20068;-83
2023/05/12 05:26:55;;;;;;;0.00;0.00;;;;;;;;;;4976734;28;20125;-83
2023/05/12 05:29:21;;;;;;;0.00;0.00;;;;;;;;;;4975454;28;20125;-83
2023/05/12 05:31:47;;;;;;;0.00;0.00;;;;;;;;;;4975241;28;20509;-82
2023/05/12 05:34:13;;;;;;;0.00;0.00;;;;;;;;;;4975132;28;20126;-82
2023/05/12 05:36:40;;;;;;;0.00;0.00;;;;;;;;;;4959025;28;20051;-83
2023/05/12 05:39:06;;;;;;;0.00;0.00;;;;;;;;;;4974736;28;20035;-83
2023/05/12 05:41:32;;;;;;;0.00;0.00;;;;;;;;;;4975014;28;20497;-82
2023/05/12 05:43:58;;;;;;;0.63;0.00;;;;;;;;;;4974824;28;20039;-82
2023/05/12 05:46:24;;;;;;;0.00;0.00;;;;;;;;;;4974785;28;20196;-82
2023/05/12 05:48:50;;;;;;;0.00;0.00;;;;;;;;;;4974564;28;20101;-83
2023/05/12 05:51:16;;;;;;;0.00;0.00;;;;;;;;;;4976154;28;20405;-82
2023/05/12 05:53:42;;;;;;;0.00;0.00;;;;;;;;;;4974497;28;20134;-83
2023/05/12 05:56:08;;;;;;;0.00;0.00;;;;;;;;;;4974118;28;20046;-83
2023/05/12 05:58:34;;;;;;;0.00;0.00;;;;;;;;;;4974614;28;20050;-82
2023/05/12 06:01:00;;;;;;;0.00;0.00;;;;;;;;;;4974698;28;20130;-83
2023/05/12 06:03:26;;;;;;;0.00;0.00;;;;;;;;;;4973992;28;20065;-83
2023/05/12 06:05:52;;;;;;;0.00;0.00;;;;;;;;;;4974504;28;20077;-83
2023/05/12 06:08:18;;;;;;;0.00;0.00;;;;;;;;;;4974363;28;20390;-83
2023/05/12 06:10:44;;;;;;;0.32;0.00;;;;;;;;;;4974535;28;20047;-83
2023/05/12 06:13:10;;;;;;;0.00;0.00;;;;;;;;;;4974529;28;20042;-83
2023/05/12 06:15:37;;;;;;;0.00;0.00;;;;;;;;;;4974488;28;20047;-83
2023/05/12 06:18:03;;;;;;;0.00;0.00;;;;;;;;;;4974144;28;20043;-83
2023/05/12 06:20:29;;;;;;;0.00;0.00;;;;;;;;;;4974044;28;20478;-82
2023/05/12 06:22:55;;;;;;;0.00;0.00;;;;;;;;;;4974204;28;20085;-84
2023/05/12 06:25:21;;;;;;;0.00;0.00;;;;;;;;;;4973795;28;20087;-82
2023/05/12 06:27:47;;;;;;;0.00;0.00;;;;;;;;;;4974380;28;20142;-82
2023/05/12 06:30:13;;;;;;;0.00;0.00;;;;;;;;;;4957755;28;20502;-82
2023/05/12 06:32:39;;;;;;;0.00;0.00;;;;;;;;;;4974098;28;20049;-81
2023/05/12 06:35:05;;;;;;;0.00;0.00;;;;;;;;;;4973801;28;20038;-82
2023/05/12 06:37:31;;;;;;;0.00;0.00;;;;;;;;;;4958164;28;20047;-82
2023/05/12 06:39:57;;;;;;;0.00;0.00;;;;;;;;;;4973620;28;20051;-82
2023/05/12 06:42:23;;;;;;;0.00;0.00;;;;;;;;;;4974051;28;20125;-82
2023/05/12 06:44:50;;;;;;;0.00;0.00;;;;;;;;;;4973581;28;20042;-83
2023/05/12 06:47:16;;;;;;;0.00;0.00;;;;;;;;;;4973891;28;20372;-82
2023/05/12 06:49:42;;;;;;;0.00;0.00;;;;;;;;;;4974794;28;20062;-82
2023/05/12 06:52:08;;;;;;;0.00;0.00;;;;;;;;;;4974914;28;20386;-82
2023/05/12 06:54:34;;;;;;;0.00;0.00;;;;;;;;;;4973332;28;20066;-82
2023/05/12 06:57:00;;;;;;;0.65;0.63;;;;;;;;;;4973304;28;20121;-82
2023/05/12 06:59:26;;;;;;;0.00;0.00;;;;;;;;;;4973502;28;20202;-85
2023/05/12 07:01:52;;;;;;;0.00;0.00;;;;;;;;;;4957171;28;20042;-82
2023/05/12 07:04:18;;;;;;;0.00;0.00;;;;;;;;;;4973075;28;20086;-82
2023/05/12 07:06:44;;;;;;;0.00;0.00;;;;;;;;;;4972576;28;20100;-82
2023/05/12 07:09:10;;;;;;;0.00;0.00;;;;;;;;;;4972950;28;20126;-82
2023/05/12 07:11:36;;;;;;;0.00;0.00;;;;;;;;;;4973544;28;20047;-82
2023/05/12 07:14:02;;;;;;;0.00;0.00;;;;;;;;;;4973112;28;20509;-82
2023/05/12 07:16:28;;;;;;;0.00;0.00;;;;;;;;;;4973158;28;20039;-82
2023/05/12 07:18:54;;;;;;;0.00;0.00;;;;;;;;;;4974371;28;20043;-82
2023/05/12 07:21:20;;;;;;;0.00;0.00;;;;;;;;;;4973299;28;20049;-85
2023/05/12 07:23:46;;;;;;;0.00;0.00;;;;;;;;;;4974018;28;20482;-83
2023/05/12 07:26:13;;;;;;;0.00;0.00;;;;;;;;;;4974366;28;20046;-83
2023/05/12 07:28:38;;;;;;;0.00;0.00;;;;;;;;;;4973190;28;20057;-83
2023/05/12 07:31:08;;;;;;;0.00;0.00;;;;;;;;;;4972669;28;20043;-83
2023/05/12 07:33:35;;;;;;;0.00;0.00;;;;;;;;;;4974281;28;20521;-83
2023/05/12 07:36:01;;;;;;;0.00;0.00;;;;;;;;;;4972594;28;20043;-83
2023/05/12 07:38:27;;;;;;;0.00;0.00;;;;;;;;;;4972985;28;20054;-83
2023/05/12 07:40:53;;;;;;;0.00;0.00;;;;;;;;;;4972807;28;20078;-83
2023/05/12 07:43:22;;;;;;;0.00;0.00;;;;;;;;;;4974397;28;20039;-84
2023/05/12 07:45:49;;;;;;;0.00;0.00;;;;;;;;;;4972877;28;20062;-83
2023/05/12 07:48:15;;;;;;;0.60;0.10;;;;;;;;;;4973392;28;20051;-83
2023/05/12 07:50:41;;;;;;;0.00;0.00;;;;;;;;;;4956521;28;20447;-84
2023/05/12 07:53:07;;;;;;;0.00;0.00;;;;;;;;;;4972879;28;20046;-84
2023/05/12 07:55:33;;;;;;;0.00;0.00;;;;;;;;;;4972456;28;20061;-83
2023/05/12 07:57:59;;;;;;;0.00;0.00;;;;;;;;;;4972867;28;20042;-84
2023/05/12 08:00:26;;;;;;;0.00;0.00;;;;;;;;;;4972932;28;20042;-83
2023/05/12 08:02:52;;;;;;;0.00;0.00;;;;;;;;;;4972729;28;20059;-83
2023/05/12 08:05:18;;;;;;;0.00;0.00;;;;;;;;;;4973025;28;20054;-84
2023/05/12 08:07:45;;;;;;;0.20;0.20;;;;;;;;;;4974012;28;20118;-83
2023/05/12 08:10:14;;;;;;;0.00;0.00;;;;;;;;;;4972315;28;20129;-83
2023/05/12 08:12:40;;;;;;;0.00;0.00;;;;;;;;;;4972734;28;20043;-83
2023/05/12 08:15:07;;;;;;;0.00;0.00;;;;;;;;;;4972760;28;20046;-83
2023/05/12 08:17:33;;;;;;;0.00;0.00;;;;;;;;;;4972600;28;20049;-83
2023/05/12 08:19:59;;;;;;;0.20;0.00;;;;;;;;;;4978629;28;20050;-83
2023/05/12 08:22:26;;;;;;;0.00;0.00;;;;;;;;;;4978787;28;20046;-83
2023/05/12 08:24:52;;;;;;;0.00;0.00;;;;;;;;;;4978612;28;20102;-83
2023/05/12 08:27:18;;;;;;;0.00;0.00;;;;;;;;;;4978958;28;20046;-83
2023/05/12 08:29:44;;;;;;;0.00;0.00;;;;;;;;;;4978793;28;20431;-83
2023/05/12 08:32:10;;;;;;;0.00;0.00;;;;;;;;;;4978888;28;20053;-83
2023/05/12 08:34:36;;;;;;;0.00;0.00;;;;;;;;;;4978861;28;20046;-83
2023/05/12 08:37:02;;;;;;;0.00;0.00;;;;;;;;;;4978997;28;20039;-83
2023/05/12 08:39:29;;;;;;;0.32;0.32;;;;;;;;;;4962536;28;20405;-82
2023/05/12 08:42:08;;;;;;;0.20;0.03;;;;;;;;;;4978947;28;20482;-87
2023/05/12 08:44:34;;;;;;;0.00;0.00;;;;;;;;;;4978586;28;20042;-83
2023/05/12 08:47:01;;;;;;;0.00;0.00;;;;;;;;;;4978854;28;20050;-82
2023/05/12 08:49:28;;;;;;;0.00;0.00;;;;;;;;;;4978955;28;20054;-82
2023/05/12 08:51:56;;;;;;;0.00;0.00;;;;;;;;;;4978955;28;20047;-82
2023/05/12 08:54:23;;;;;;;0.00;0.00;;;;;;;;;;4978726;28;20045;-83
2023/05/12 08:56:51;;;;;;;0.00;0.00;;;;;;;;;;4978439;28;20053;-84
2023/05/12 08:59:17;;;;;;;0.00;0.00;;;;;;;;;;4978943;28;20057;-82
2023/05/12 09:01:46;;;;;;;0.00;0.00;;;;;;;;;;4978638;28;20035;-83
2023/05/12 09:04:14;;;;;;;0.00;0.00;;;;;;;;;;4962433;28;20059;-82
2023/05/12 09:06:40;;;;;;;0.00;0.00;;;;;;;;;;4978670;28;20211;-82
2023/05/12 09:09:06;;;;;;;0.00;0.00;;;;;;;;;;4978382;28;20402;-83
2023/05/12 09:11:32;;;;;;;0.00;0.00;;;;;;;;;;4978673;28;20039;-83
2023/05/12 09:14:08;;;;;;;0.00;0.00;;;;;;;;;;4978489;28;20039;-85
2023/05/12 09:16:34;;;;;;;;;;;;;;;;;;4978634;28;20047;-85
2023/05/12 09:19:01;;;;;;;0.00;0.00;;;;;;;;;;4978549;28;19922;-85
2023/05/12 09:21:27;;;;;;;0.00;0.00;;;;;;;;;;4978050;28;20050;-85
2023/05/12 09:24:05;;;;;;;1.20;0.00;;;;;;;;;;4979405;28;20053;-86
2023/05/12 09:26:31;;;;;;;0.30;0.30;;;;;;;;;;4978865;28;20050;-85
2023/05/12 09:29:05;;;;;;;0.00;0.00;;;;;;;;;;4978638;28;20051;-85
2023/05/12 09:31:32;;;;;;;0.00;0.00;;;;;;;;;;4974752;28;20501;-88
2023/05/12 09:33:58;;;;;;;0.00;0.00;;;;;;;;;;4975441;28;20105;-85
2023/05/12 09:36:24;;;;;;;0.00;0.00;;;;;;;;;;4975131;28;20062;-85
2023/05/12 09:39:03;;;;;;;0.00;0.00;;;;;;;;;;4975094;28;20558;-85
2023/05/12 09:41:29;;;;;;;0.00;0.00;;;;;;;;;;4974982;28;20039;-85
2023/05/12 09:43:55;;;;;;;0.00;0.00;;;;;;;;;;4959144;28;20038;-85
2023/05/12 09:46:21;;;;;;;0.00;0.00;;;;;;;;;;4974825;28;20049;-85
2023/05/12 09:48:47;;;;;;;0.00;0.00;;;;;;;;;;4974840;28;20133;-85
2023/05/12 09:51:17;;;;;;;0.00;0.00;;;;;;;;;;4974609;28;20043;-85
2023/05/12 09:53:43;;;;;;;0.20;0.15;;;;;;;;;;4958577;28;20264;-84
2023/05/12 09:56:13;;;;;;;0.00;0.00;;;;;;;;;;4974518;28;20049;-85
2023/05/12 09:58:45;;;;;;;0.00;0.00;;;;;;;;;;4974807;28;20050;-85
2023/05/12 10:01:12;;;;;;;0.00;0.00;;;;;;;;;;4974597;28;20050;-85
2023/05/12 10:03:41;;;;;;;0.00;0.00;;;;;;;;;;4974246;28;20352;-85
2023/05/12 10:06:07;;;;;;;0.05;0.05;;;;;;;;;;4974349;28;20435;-84
2023/05/12 10:08:44;;;;;;;0.00;0.00;;;;;;;;;;4974810;28;20506;-84
2023/05/12 10:11:11;;;;;;;0.00;0.00;;;;;;;;;;4975851;28;20505;-85
2023/05/12 10:13:38;;;;;;;0.03;0.00;;;;;;;;;;4974365;28;20062;-85
2023/05/12 10:16:05;;;;;;;0.00;0.00;;;;;;;;;;4974256;28;20054;-85
2023/05/12 10:18:33;;;;;;;0.00;0.00;;;;;;;;;;4974246;28;20039;-85
2023/05/12 10:21:00;;;;;;;0.00;0.00;;;;;;;;;;4974373;28;20121;-85
2023/05/12 10:23:26;;;;;;;0.00;0.00;;;;;;;;;;4958155;28;20046;-86
2023/05/12 10:25:57;;;;;;;0.00;0.00;;;;;;;;;;4974144;28;20058;-85
2023/05/12 10:28:23;;;;;;;0.00;0.00;;;;;;;;;;4974375;28;20169;-86
2023/05/12 10:30:50;;;;;;;0.10;0.00;;;;;;;;;;4973853;28;20053;-85
2023/05/12 10:33:18;;;;;;;0.00;0.00;;;;;;;;;;4957820;28;20042;-86
2023/05/12 10:35:45;;;;;;;0.30;0.10;;;;;;;;;;4973700;28;20050;-86
2023/05/12 10:38:12;;;;;;;0.00;0.00;;;;;;;;;;4957995;28;20129;-86
2023/05/12 10:40:58;;;;;;;0.00;0.00;;;;;;;;;;4973806;28;20049;-85
2023/05/12 10:43:24;;;;;;;0.63;0.03;;;;;;;;;;4973171;28;20070;-85
2023/05/12 10:46:29;;;;;;;0.10;0.10;;;;;;;;;;4957453;28;20454;-85
2023/05/12 10:48:57;;;;;;;0.32;0.00;;;;;;;;;;4899618;29;20298;-84
2023/05/12 10:51:25;;;;;;;0.00;0.00;;;;;;;;;;4915113;29;20204;-84
2023/05/12 10:53:52;;;;;;;0.00;0.00;;;;;;;;;;4934991;28;20057;-83
2023/05/12 10:56:22;;;;;;;0.00;0.00;;;;;;;;;;4973208;28;20070;-85
2023/05/12 10:59:11;;;;;;;0.00;0.00;;;;;;;;;;4973984;28;20122;-87
2023/05/12 11:01:37;;;;;;;0.00;0.00;;;;;;;;;;4973388;28;20047;-83
2023/05/12 11:04:18;;;;;;;0.00;0.00;;;;;;;;;;4973459;28;20148;-84
2023/05/12 11:06:44;;;;;;;0.00;0.00;;;;;;;;;;4957440;28;20157;-85
2023/05/12 11:09:11;;;;;;;0.57;0.30;;;;;;;;;;4957407;28;20043;-85
2023/05/12 11:11:37;;;;;;;0.00;0.00;;;;;;;;;;4973295;28;20494;-84
2023/05/12 11:14:03;;;;;;;0.00;0.00;;;;;;;;;;4973340;28;20187;-85
2023/05/12 11:16:29;;;;;;;0.00;0.00;;;;;;;;;;4956940;28;20065;-84
2023/05/12 11:19:04;;;;;;;0.00;0.00;;;;;;;;;;4973216;28;20054;-85
2023/05/12 11:21:34;;;;;;;0.05;0.00;;;;;;;;;;4973250;28;20430;-84
2023/05/12 11:24:00;;;;;;;0.00;0.00;;;;;;;;;;4970597;28;20081;-84
2023/05/12 11:26:27;;;;;;;0.00;0.00;;;;;;;;;;4974048;28;20051;-84
2023/05/12 11:28:53;;;;;;;0.00;0.00;;;;;;;;;;4972943;28;20051;-84
2023/05/12 11:31:20;;;;;;;0.00;0.00;;;;;;;;;;4956757;28;20051;-84
2023/05/12 11:33:46;;;;;;;0.00;0.00;;;;;;;;;;4974349;28;20212;-84
2023/05/12 11:36:13;;;;;;;0.00;0.00;;;;;;;;;;4972879;28;20038;-85
2023/05/12 11:38:39;;;;;;;0.00;0.00;;;;;;;;;;4973198;28;20125;-84
2023/05/12 11:41:05;;;;;;;0.08;0.00;;;;;;;;;;4972830;28;20187;-83
2023/05/12 11:43:31;;;;;;;0.20;0.00;;;;;;;;;;4972824;28;20039;-83
2023/05/12 11:45:58;;;;;;;0.00;0.00;;;;;;;;;;4972847;28;20047;-84
2023/05/12 11:48:32;;;;;;;0.00;0.00;;;;;;;;;;4972761;28;20391;-84
2023/05/12 11:50:58;;;;;;;0.00;0.00;;;;;;;;;;4972738;28;20058;-84
2023/05/12 11:53:24;;;;;;;0.00;0.00;;;;;;;;;;4972132;28;20043;-85
2023/05/12 11:55:51;;;;;;;0.00;0.00;;;;;;;;;;4972604;28;20410;-84
2023/05/12 11:58:22;;;;;;;0.00;0.00;;;;;;;;;;4972323;28;20497;-84
2023/05/12 12:00:48;;;;;;;0.00;0.00;;;;;;;;;;4972607;28;20047;-84
2023/05/12 12:03:15;;;;;;;0.00;0.00;;;;;;;;;;4972152;28;20234;-83
2023/05/12 12:05:42;;;;;;;0.00;0.00;;;;;;;;;;4973816;28;20051;-84
2023/05/12 12:08:11;;;;;;;0.00;0.00;;;;;;;;;;4972143;28;20053;-84
2023/05/12 12:10:37;;;;;;;0.25;0.05;;;;;;;;;;4956476;28;20050;-83
2023/05/12 12:13:03;;;;;;;0.00;0.00;;;;;;;;;;4973704;28;20039;-84
2023/05/12 12:15:29;;;;;;;0.00;0.00;;;;;;;;;;4956603;28;20047;-85
2023/05/12 12:17:55;;;;;;;0.00;0.00;;;;;;;;;;4972141;28;20410;-84
2023/05/12 12:20:21;;;;;;;0.00;0.00;;;;;;;;;;4972452;28;20038;-85
2023/05/12 12:22:47;;;;;;;0.00;0.00;;;;;;;;;;4972373;28;20038;-84
2023/05/12 12:25:13;;;;;;;0.05;0.00;;;;;;;;;;4972401;28;20038;-85
2023/05/12 12:27:39;;;;;;;0.00;0.00;;;;;;;;;;4972161;28;20517;-84
2023/05/12 12:30:05;;;;;;;0.00;0.00;;;;;;;;;;4972948;28;20157;-85
2023/05/12 12:32:31;;;;;;;0.32;0.00;;;;;;;;;;4972182;28;20047;-84
2023/05/12 12:35:00;;;;;;;0.00;0.00;;;;;;;;;;4972237;28;20121;-84
2023/05/12 12:37:26;;;;;;;0.00;0.00;;;;;;;;;;4972002;28;20043;-84
2023/05/12 12:39:52;;;;;;;0.00;0.00;;;;;;;;;;4956153;28;20118;-84
2023/05/12 12:42:18;;;;;;;0.00;0.00;;;;;;;;;;4973324;28;20557;-84
2023/05/12 12:44:46;;;;;;;0.00;0.00;;;;;;;;;;4972296;28;20043;-85
2023/05/12 12:47:12;;;;;;;0.00;0.00;;;;;;;;;;4972008;28;20058;-86
2023/05/12 12:49:38;;;;;;;0.00;0.00;;;;;;;;;;4972038;28;20051;-85
2023/05/12 12:52:06;;;;;;;0.00;0.00;;;;;;;;;;4971724;28;20098;-83
2023/05/12 12:54:32;;;;;;;0.00;0.00;;;;;;;;;;4972043;28;20454;-85
2023/05/12 12:56:57;;;;;;;0.00;0.00;;;;;;;;;;4971865;28;20510;-88
2023/05/12 12:59:23;;;;;;;0.00;0.00;;;;;;;;;;4972166;28;20035;-84
2023/05/12 13:01:50;;;;;;;0.20;0.20;;;;;;;;;;4972351;28;20455;-84
2023/05/12 13:04:20;;;;;;;0.20;0.03;;;;;;;;;;4971761;28;20055;-84
2023/05/12 13:06:46;;;;;;;0.00;0.00;;;;;;;;;;4975465;28;20106;-85
2023/05/12 13:09:12;;;;;;;0.00;0.00;;;;;;;;;;4975537;28;20054;-84
2023/05/12 13:11:38;;;;;;;0.00;0.00;;;;;;;;;;4975638;28;20042;-84
2023/05/12 13:14:04;;;;;;;0.00;0.00;;;;;;;;;;4976681;28;20039;-84
2023/05/12 13:16:31;;;;;;;0.00;0.00;;;;;;;;;;4976666;28;20034;-84
2023/05/12 13:18:57;;;;;;;0.00;0.00;;;;;;;;;;4975105;28;20378;-84
2023/05/12 13:21:23;;;;;;;0.00;0.00;;;;;;;;;;4976722;28;20034;-85
2023/05/12 13:23:49;;;;;;;0.00;0.00;;;;;;;;;;4975138;28;20104;-85
2023/05/12 13:26:15;;;;;;;0.00;0.00;;;;;;;;;;4975708;28;20054;-84
2023/05/12 13:28:41;;;;;;;0.00;0.00;;;;;;;;;;4975043;28;20133;-84
2023/05/12 13:31:07;;;;;;;0.00;0.00;;;;;;;;;;4975603;28;20054;-85
2023/05/12 13:33:33;;;;;;;0.00;0.00;;;;;;;;;;4976228;28;20121;-85
2023/05/12 13:35:59;;;;;;;0.00;0.00;;;;;;;;;;4975276;28;20046;-86
2023/05/12 13:38:25;;;;;;;0.00;0.00;;;;;;;;;;4976296;28;20066;-84
2023/05/12 13:40:51;;;;;;;0.00;0.00;;;;;;;;;;4974832;28;20046;-84
2023/05/12 13:43:17;;;;;;;0.00;0.00;;;;;;;;;;4974714;28;20047;-84
2023/05/12 13:45:43;;;;;;;0.00;0.00;;;;;;;;;;4976020;28;20062;-84
2023/05/12 13:48:09;;;;;;;0.00;0.00;;;;;;;;;;4974729;28;20483;-84
2023/05/12 13:50:36;;;;;;;0.00;0.00;;;;;;;;;;4974824;28;20042;-85
2023/05/12 13:53:01;;;;;;;0.00;0.00;;;;;;;;;;4975901;28;20105;-84
2023/05/12 13:55:27;;;;;;;0.00;0.00;;;;;;;;;;4974701;28;20038;-84
2023/05/12 13:57:53;;;;;;;0.10;0.10;;;;;;;;;;4975569;28;20054;-84
2023/05/12 14:00:19;;;;;;;0.00;0.00;;;;;;;;;;4974927;28;20042;-84
2023/05/12 14:02:45;;;;;;;0.00;0.00;;;;;;;;;;4975409;28;20101;-84
2023/05/12 14:05:11;;;;;;;0.00;0.00;;;;;;;;;;4974585;28;20051;-84
2023/05/12 14:07:37;;;;;;;0.00;0.00;;;;;;;;;;4974560;28;20050;-85
2023/05/12 14:10:03;;;;;;;0.00;0.00;;;;;;;;;;4958325;28;20043;-84
2023/05/12 14:12:29;;;;;;;0.00;0.00;;;;;;;;;;4974512;28;20141;-85
2023/05/12 14:14:56;;;;;;;0.00;0.00;;;;;;;;;;4974240;28;20513;-85
2023/05/12 14:17:22;;;;;;;0.00;0.00;;;;;;;;;;4974049;28;20129;-85
2023/05/12 14:19:47;;;;;;;0.00;0.00;;;;;;;;;;4975572;28;20118;-84
2023/05/12 14:22:13;;;;;;;0.00;0.00;;;;;;;;;;4974780;28;20042;-86
2023/05/12 14:24:40;;;;;;;0.08;0.00;;;;;;;;;;4974216;28;20520;-84
2023/05/12 14:27:07;;;;;;;0.00;0.00;;;;;;;;;;4974249;28;20053;-84
2023/05/12 14:29:33;;;;;;;0.00;0.00;;;;;;;;;;4974089;28;20094;-85
2023/05/12 14:31:59;;;;;;;0.00;0.00;;;;;;;;;;4974393;28;20054;-85
2023/05/12 14:34:25;;;;;;;0.00;0.00;;;;;;;;;;4974449;28;20046;-85
2023/05/12 14:36:51;;;;;;;0.00;0.00;;;;;;;;;;4975917;28;20113;-85
2023/05/12 14:39:17;;;;;;;0.00;0.00;;;;;;;;;;4973987;28;20070;-84